Portada
METAR-TAF:

METAR-TAF

Aeroports :

Vientiane, Laos

latitud: 17-57N, longitud: 102-34E, altitud: 171 m

Observació

L'informe es va fer fa 41 minuts, a les 03:00 UTC
Vent 2 kt del Nord
Temperatura 24°C
Humitat 61%
Pressió 1020 hPa
Visibilitat: 7000 m
Núvols disperses a una alçada de 10000 ft
Escasses núvols a una alçada de 20000 ft

METAR: VLVT 130300Z 36002KT 7000 SCT100 FEW200 24/16 Q1020 NOSIG

Hora: 10:41 (03:41 UTC)

Pronòstic

L'informe es va fer fa 4 hores i 41 minuts, a les 23:00 UTC
Pronòstic vàlid del 13 a les 00 UTC al 13 a les 24 UTC
Vent 4 kt del Est/Nord-Est
Visibilitat: 8000 m
Escasses núvols a una alçada de 2000 ft
Escasses núvols a una alçada de 5000 ft

TAF: VLVT 122300Z 1300/1324 06004KT 8000 FEW020 FEW050

Observacions i pronòstics meteorològics de més de 4000 aeroports (METAR i TAF).

Les estacions disponibles són els punts grocs i vermells al mapa.

Posi el ratolí al punt desitjat per veure el nom de l'estació.

Feu clic per veure les observacions i els pronòstics meteorològics.

Per canviar el mapa: feu clic els botons verds amb una creu de color negre per apropar; al botó verd amb un guió per allunyar la imatge; o en les fletxes verdes per a mapes adjacents.


METAR-TAF: